Time;durP1;ratioP1;P1;durP2;ratioP2;P2;SDS_P1;SDS_P2;PMS_P1;PMS_P2;Temp;Humidity;BMP_temperature;BMP_pressure;BME280_temperature;BME280_humidity;BME280_pressure;Samples;Min_cycle;Max_cycle;Signal;HPM_P1;HPM_P2
2021/10/12 00:00:57;;;;;;;4.93;1.90;;;;;;;;;;5034370;28;20205;-73
2021/10/12 00:03:22;;;;;;;6.32;1.70;;;;;;;;;;5026593;28;20193;-73
2021/10/12 00:05:48;;;;;;;11.15;2.58;;;;;;;;;;5035314;28;20189;-73
2021/10/12 00:08:14;;;;;;;3.80;1.33;;;;;;;;;;5026714;28;20291;-73
2021/10/12 00:10:39;;;;;;;8.73;1.58;;;;;;;;;;5032029;28;20767;-73
2021/10/12 00:13:04;;;;;;;12.05;2.13;;;;;;;;;;5027135;28;20551;-72
2021/10/12 00:15:30;;;;;;;8.23;1.83;;;;;;;;;;5030072;28;20221;-71
2021/10/12 00:17:55;;;;;;;4.88;1.50;;;;;;;;;;5027999;28;20661;-72
2021/10/12 00:20:21;;;;;;;7.63;1.40;;;;;;;;;;5030795;28;20227;-72
2021/10/12 00:22:46;;;;;;;10.02;1.77;;;;;;;;;;5035043;28;20265;-72
2021/10/12 00:25:11;;;;;;;5.95;1.80;;;;;;;;;;5023490;28;20192;-72
2021/10/12 00:27:37;;;;;;;6.38;1.67;;;;;;;;;;5036772;28;20235;-73
2021/10/12 00:30:04;;;;;;;7.88;1.60;;;;;;;;;;5026013;28;20655;-73
2021/10/12 00:32:30;;;;;;;5.75;2.03;;;;;;;;;;5036545;28;20280;-73
2021/10/12 00:34:55;;;;;;;10.00;2.17;;;;;;;;;;5020547;28;20186;-72
2021/10/12 00:37:20;;;;;;;4.82;1.77;;;;;;;;;;5036448;28;20649;-72
2021/10/12 00:39:46;;;;;;;6.55;1.40;;;;;;;;;;5026466;28;20518;-73
2021/10/12 00:42:12;;;;;;;6.13;1.70;;;;;;;;;;5034883;28;20190;-73
2021/10/12 00:44:38;;;;;;;11.73;2.17;;;;;;;;;;5028359;28;20181;-72
2021/10/12 00:47:03;;;;;;;11.00;1.88;;;;;;;;;;5034784;28;20219;-72
2021/10/12 00:49:29;;;;;;;11.52;2.38;;;;;;;;;;5031401;28;20193;-72
2021/10/12 00:51:54;;;;;;;9.80;2.25;;;;;;;;;;5028612;28;20321;-72
2021/10/12 00:54:20;;;;;;;8.32;2.05;;;;;;;;;;5032055;28;20268;-72
2021/10/12 00:56:47;;;;;;;7.68;2.30;;;;;;;;;;5025707;28;20231;-73
2021/10/12 00:59:13;;;;;;;10.20;2.40;;;;;;;;;;5033093;28;20583;-73
2021/10/12 01:01:39;;;;;;;7.35;2.42;;;;;;;;;;5021982;28;20185;-72
2021/10/12 01:04:06;;;;;;;7.85;2.28;;;;;;;;;;5033912;28;20235;-72
2021/10/12 01:06:32;;;;;;;5.43;2.40;;;;;;;;;;5026028;28;20189;-72
2021/10/12 01:08:57;;;;;;;11.40;2.22;;;;;;;;;;5034280;28;20239;-72
2021/10/12 01:11:22;;;;;;;9.55;2.17;;;;;;;;;;5024293;28;20195;-73
2021/10/12 01:13:48;;;;;;;7.55;2.55;;;;;;;;;;5033983;28;20181;-72
2021/10/12 01:16:17;;;;;;;8.63;2.60;;;;;;;;;;5026694;28;20217;-73
2021/10/12 01:19:04;;;;;;;14.13;2.97;;;;;;;;;;5034335;28;20210;-72
2021/10/12 01:21:46;;;;;;;30.55;16.48;;;;;;;;;;5024462;28;20242;-72
2021/10/12 01:24:12;;;;;;;82.72;47.70;;;;;;;;;;5034080;28;20182;-72
2021/10/12 01:26:42;;;;;;;104.82;59.42;;;;;;;;;;5026812;28;20544;-73
2021/10/12 01:29:10;;;;;;;85.15;39.15;;;;;;;;;;5035336;28;20277;-73
2021/10/12 01:31:35;;;;;;;59.75;26.77;;;;;;;;;;5034146;28;20359;-72
2021/10/12 01:34:09;;;;;;;44.13;16.98;;;;;;;;;;5025793;28;20288;-73
2021/10/12 01:36:34;;;;;;;28.73;10.75;;;;;;;;;;5030331;28;20287;-73
2021/10/12 01:38:59;;;;;;;23.00;7.55;;;;;;;;;;5025495;28;20201;-72
2021/10/12 01:41:24;;;;;;;20.80;5.82;;;;;;;;;;5031273;28;20199;-73
2021/10/12 01:43:50;;;;;;;12.70;4.07;;;;;;;;;;5026487;28;20683;-72
2021/10/12 01:46:15;;;;;;;19.17;4.00;;;;;;;;;;5031800;28;20193;-72
2021/10/12 01:48:40;;;;;;;14.23;3.25;;;;;;;;;;5025096;28;20190;-73
2021/10/12 01:51:06;;;;;;;13.02;2.70;;;;;;;;;;5032398;28;20193;-73
2021/10/12 01:53:31;;;;;;;15.77;2.50;;;;;;;;;;5024627;28;20251;-74
2021/10/12 01:55:57;;;;;;;12.65;2.65;;;;;;;;;;5035273;28;20236;-71
2021/10/12 01:58:22;;;;;;;14.90;2.28;;;;;;;;;;5023308;28;20312;-72
2021/10/12 02:00:47;;;;;;;16.10;2.63;;;;;;;;;;5036065;28;20216;-72
2021/10/12 02:03:13;;;;;;;15.48;2.50;;;;;;;;;;5034355;28;20189;-72
2021/10/12 02:05:38;;;;;;;14.75;2.33;;;;;;;;;;5021750;28;20198;-73
2021/10/12 02:08:04;;;;;;;8.82;2.38;;;;;;;;;;5033962;28;20200;-72
2021/10/12 02:10:29;;;;;;;11.32;1.95;;;;;;;;;;5023289;28;21248;-73
2021/10/12 02:12:55;;;;;;;7.90;2.05;;;;;;;;;;5033320;28;20300;-72
2021/10/12 02:15:20;;;;;;;8.88;1.98;;;;;;;;;;5025283;28;20185;-72
2021/10/12 02:17:46;;;;;;;15.65;2.40;;;;;;;;;;5032933;28;20564;-73
2021/10/12 02:20:11;;;;;;;15.70;2.40;;;;;;;;;;5024158;28;20208;-72
2021/10/12 02:22:38;;;;;;;13.98;1.90;;;;;;;;;;5035985;28;20330;-72
2021/10/12 02:25:05;;;;;;;12.57;2.00;;;;;;;;;;5028154;28;20224;-73
2021/10/12 02:27:31;;;;;;;10.70;2.05;;;;;;;;;;5036539;28;20743;-73
2021/10/12 02:29:56;;;;;;;10.77;1.98;;;;;;;;;;5030654;28;20178;-72
2021/10/12 02:32:22;;;;;;;6.78;1.85;;;;;;;;;;5032589;28;20662;-72
2021/10/12 02:34:47;;;;;;;12.60;1.85;;;;;;;;;;5035616;28;20505;-72
2021/10/12 02:37:12;;;;;;;18.77;3.22;;;;;;;;;;5027925;28;20209;-73
2021/10/12 02:39:38;;;;;;;8.75;2.00;;;;;;;;;;5039948;28;20607;-73
2021/10/12 02:42:04;;;;;;;17.90;2.42;;;;;;;;;;5028136;28;20204;-72
2021/10/12 02:44:29;;;;;;;12.52;2.08;;;;;;;;;;5036928;28;20677;-73
2021/10/12 02:46:55;;;;;;;13.45;2.40;;;;;;;;;;5026133;28;20197;-72
2021/10/12 02:49:20;;;;;;;13.05;2.13;;;;;;;;;;5036363;28;20589;-73
2021/10/12 02:51:46;;;;;;;13.13;1.90;;;;;;;;;;5029437;28;20242;-72
2021/10/12 02:54:11;;;;;;;12.52;2.00;;;;;;;;;;5037367;28;20258;-72
2021/10/12 02:56:36;;;;;;;11.27;2.00;;;;;;;;;;5029084;28;20222;-72
2021/10/12 02:59:02;;;;;;;10.73;1.67;;;;;;;;;;5038841;28;20542;-73
2021/10/12 03:01:27;;;;;;;11.32;2.00;;;;;;;;;;5034752;28;20223;-71
2021/10/12 03:03:52;;;;;;;9.73;1.80;;;;;;;;;;5027035;28;20548;-72
2021/10/12 03:06:18;;;;;;;12.75;1.63;;;;;;;;;;5033789;28;20193;-72
2021/10/12 03:08:43;;;;;;;11.05;2.08;;;;;;;;;;5025550;28;20246;-72
2021/10/12 03:11:09;;;;;;;13.05;1.80;;;;;;;;;;5037939;28;20489;-73
2021/10/12 03:13:35;;;;;;;9.65;2.20;;;;;;;;;;5028708;28;20284;-73
2021/10/12 03:16:00;;;;;;;13.23;1.75;;;;;;;;;;5035339;28;20198;-72
2021/10/12 03:18:29;;;;;;;11.77;1.83;;;;;;;;;;5027555;28;20315;-73
2021/10/12 03:20:55;;;;;;;9.65;1.85;;;;;;;;;;5036870;28;20185;-73
2021/10/12 03:23:20;;;;;;;11.02;1.80;;;;;;;;;;5027280;28;20204;-72
2021/10/12 03:25:45;;;;;;;13.95;1.92;;;;;;;;;;5036002;28;20185;-72
2021/10/12 03:28:11;;;;;;;7.65;1.55;;;;;;;;;;5028265;28;20185;-72
2021/10/12 03:30:36;;;;;;;11.43;1.92;;;;;;;;;;5037858;28;21739;-72
2021/10/12 03:33:03;;;;;;;8.90;2.10;;;;;;;;;;5033863;28;20306;-72
2021/10/12 03:35:37;;;;;;;13.25;2.50;;;;;;;;;;5026837;28;20276;-72
2021/10/12 03:38:03;;;;;;;12.30;2.45;;;;;;;;;;5031657;28;20581;-73
2021/10/12 03:40:29;;;;;;;7.13;1.83;;;;;;;;;;5026844;28;20323;-73
2021/10/12 03:42:54;;;;;;;12.25;2.35;;;;;;;;;;5033746;28;20294;-73
2021/10/12 03:45:20;;;;;;;9.48;1.92;;;;;;;;;;5029609;28;20192;-72
2021/10/12 03:47:46;;;;;;;11.27;1.65;;;;;;;;;;5033837;28;20190;-72
2021/10/12 03:50:11;;;;;;;8.48;1.83;;;;;;;;;;5028276;28;20323;-72
2021/10/12 03:52:37;;;;;;;10.75;2.08;;;;;;;;;;5032949;28;20189;-72
2021/10/12 03:55:03;;;;;;;10.57;1.92;;;;;;;;;;5030450;28;20205;-73
2021/10/12 03:57:29;;;;;;;10.80;2.70;;;;;;;;;;5031492;28;20332;-72
2021/10/12 03:59:54;;;;;;;8.98;2.30;;;;;;;;;;5028141;28;20685;-72
2021/10/12 04:02:19;;;;;;;10.55;2.25;;;;;;;;;;5030308;28;20205;-72
2021/10/12 04:04:45;;;;;;;10.73;2.13;;;;;;;;;;5034532;28;20207;-72
2021/10/12 04:07:10;;;;;;;8.57;2.25;;;;;;;;;;5024895;28;20219;-72
2021/10/12 04:09:35;;;;;;;9.68;2.05;;;;;;;;;;5036489;28;20785;-72
2021/10/12 04:12:01;;;;;;;7.30;2.20;;;;;;;;;;5025397;28;20192;-72
2021/10/12 04:14:26;;;;;;;11.55;1.88;;;;;;;;;;5033809;28;20804;-72
2021/10/12 04:16:51;;;;;;;8.55;2.15;;;;;;;;;;5025154;28;20643;-73
2021/10/12 04:19:17;;;;;;;10.55;2.17;;;;;;;;;;5034368;28;20197;-73
2021/10/12 04:21:42;;;;;;;7.00;1.88;;;;;;;;;;5024443;28;20790;-73
2021/10/12 04:24:08;;;;;;;9.25;1.65;;;;;;;;;;5034799;28;20193;-73
2021/10/12 04:26:33;;;;;;;8.73;2.05;;;;;;;;;;5024249;28;20544;-73
2021/10/12 04:28:59;;;;;;;7.72;2.10;;;;;;;;;;5033829;28;20204;-73
2021/10/12 04:31:24;;;;;;;7.90;1.95;;;;;;;;;;5021162;28;20195;-73
2021/10/12 04:33:49;;;;;;;10.05;1.83;;;;;;;;;;5032761;28;20197;-73
2021/10/12 04:36:15;;;;;;;9.35;1.65;;;;;;;;;;5031049;28;20202;-73
2021/10/12 04:38:40;;;;;;;6.35;1.65;;;;;;;;;;5025406;28;20190;-73
2021/10/12 04:41:07;;;;;;;5.18;1.40;;;;;;;;;;5035313;28;20185;-73
2021/10/12 04:43:33;;;;;;;7.07;2.17;;;;;;;;;;5024288;28;20239;-73
2021/10/12 04:45:58;;;;;;;8.77;1.50;;;;;;;;;;5034444;28;21231;-73
2021/10/12 04:48:24;;;;;;;8.45;1.70;;;;;;;;;;5022705;28;20217;-73
2021/10/12 04:50:50;;;;;;;5.88;1.42;;;;;;;;;;5032211;28;21248;-73
2021/10/12 04:53:16;;;;;;;9.77;1.70;;;;;;;;;;5022173;28;20192;-73
2021/10/12 04:55:41;;;;;;;9.15;1.55;;;;;;;;;;5031201;28;20635;-73
2021/10/12 04:58:14;;;;;;;8.86;1.73;;;;;;;;;;4579807;28;10002909;-73
2021/10/12 05:00:39;;;;;;;6.88;1.67;;;;;;;;;;5033316;28;20204;-73
2021/10/12 05:03:05;;;;;;;14.00;2.05;;;;;;;;;;5022072;28;20280;-73
2021/10/12 05:05:31;;;;;;;7.80;2.13;;;;;;;;;;5029959;28;20200;-73
2021/10/12 05:07:56;;;;;;;10.95;2.50;;;;;;;;;;5029635;28;20238;-73
2021/10/12 05:10:22;;;;;;;9.43;2.03;;;;;;;;;;5021913;28;20302;-73
2021/10/12 05:12:47;;;;;;;8.75;2.13;;;;;;;;;;5032604;28;20189;-75
2021/10/12 05:15:19;;;;;;;10.82;2.38;;;;;;;;;;5024237;28;20272;-73
2021/10/12 05:17:47;;;;;;;10.13;2.38;;;;;;;;;;5028975;28;20280;-72
2021/10/12 05:20:12;;;;;;;8.95;2.35;;;;;;;;;;5020239;28;20304;-72
2021/10/12 05:22:38;;;;;;;8.25;2.13;;;;;;;;;;5030573;28;20207;-72
2021/10/12 05:25:04;;;;;;;8.40;2.10;;;;;;;;;;5019857;28;20899;-74
2021/10/12 05:27:30;;;;;;;10.18;2.63;;;;;;;;;;5027313;28;20189;-72
2021/10/12 05:29:56;;;;;;;11.30;2.35;;;;;;;;;;5017382;28;21003;-72
2021/10/12 05:32:21;;;;;;;11.88;1.95;;;;;;;;;;5030639;28;20185;-73
2021/10/12 05:34:47;;;;;;;13.65;2.65;;;;;;;;;;5026009;28;20673;-72
2021/10/12 05:37:12;;;;;;;11.07;2.63;;;;;;;;;;5031062;28;20685;-73
2021/10/12 05:39:37;;;;;;;11.25;2.40;;;;;;;;;;5032738;28;20224;-73
2021/10/12 05:42:03;;;;;;;8.80;2.05;;;;;;;;;;5022448;28;20524;-73
2021/10/12 05:44:28;;;;;;;8.23;2.33;;;;;;;;;;5032849;28;20185;-73
2021/10/12 05:46:53;;;;;;;8.93;2.65;;;;;;;;;;5023171;28;21516;-73
2021/10/12 05:49:19;;;;;;;9.82;2.13;;;;;;;;;;5033207;28;20223;-73
2021/10/12 05:51:47;;;;;;;10.13;2.33;;;;;;;;;;5022681;28;20645;-73
2021/10/12 05:54:17;;;;;;;10.10;2.33;;;;;;;;;;5031809;28;20194;-77
2021/10/12 05:57:05;;;;;;;9.00;2.58;;;;;;;;;;5020999;28;20216;-74
2021/10/12 05:59:29;;;;;;;9.88;2.58;;;;;;;;;;5028783;28;20727;-73
2021/10/12 06:01:54;;;;;;;8.13;2.45;;;;;;;;;;5019846;28;20204;-73
2021/10/12 06:04:19;;;;;;;10.13;2.88;;;;;;;;;;5029422;28;20185;-73
2021/10/12 06:06:45;;;;;;;9.57;2.67;;;;;;;;;;5025663;28;20181;-74
2021/10/12 06:09:10;;;;;;;8.35;2.85;;;;;;;;;;5027493;28;20713;-73
2021/10/12 06:11:39;;;;;;;6.95;2.28;;;;;;;;;;4828097;28;10000936;-73
2021/10/12 06:14:05;;;;;;;13.18;2.95;;;;;;;;;;5019569;28;20729;-73
2021/10/12 06:16:30;;;;;;;8.18;3.08;;;;;;;;;;5029620;28;20312;-73
2021/10/12 06:18:55;;;;;;;9.75;2.72;;;;;;;;;;5021573;28;20193;-74
2021/10/12 06:21:21;;;;;;;12.88;3.20;;;;;;;;;;5032646;28;20266;-73
2021/10/12 06:23:46;;;;;;;10.73;3.92;;;;;;;;;;5018850;28;20200;-73
2021/10/12 06:26:12;;;;;;;10.43;3.38;;;;;;;;;;5027322;28;20677;-74
2021/10/12 06:28:37;;;;;;;11.02;4.18;;;;;;;;;;5020068;28;20221;-74
2021/10/12 06:31:02;;;;;;;12.95;4.28;;;;;;;;;;5028008;28;20189;-77
2021/10/12 06:33:28;;;;;;;9.73;4.63;;;;;;;;;;5021749;28;20724;-75
2021/10/12 06:35:53;;;;;;;14.93;4.43;;;;;;;;;;5030203;28;20220;-74
2021/10/12 06:38:19;;;;;;;14.57;5.07;;;;;;;;;;5019900;28;20201;-76
2021/10/12 06:40:44;;;;;;;10.77;4.65;;;;;;;;;;5030978;28;20189;-77
2021/10/12 06:43:10;;;;;;;9.18;4.05;;;;;;;;;;5030258;28;20258;-75
2021/10/12 06:45:37;;;;;;;10.93;4.20;;;;;;;;;;5020629;28;20193;-76
2021/10/12 06:48:03;;;;;;;11.18;4.38;;;;;;;;;;5030041;28;21643;-76
2021/10/12 06:50:29;;;;;;;12.70;4.82;;;;;;;;;;5018249;28;20201;-75
2021/10/12 06:52:54;;;;;;;19.27;5.13;;;;;;;;;;5031757;28;20196;-76
2021/10/12 06:55:20;;;;;;;15.45;4.85;;;;;;;;;;5021066;28;20189;-75
2021/10/12 06:57:46;;;;;;;13.63;4.63;;;;;;;;;;5031981;28;20209;-75
2021/10/12 07:00:13;;;;;;;12.32;4.82;;;;;;;;;;5023026;28;20663;-76
2021/10/12 07:02:39;;;;;;;10.43;5.18;;;;;;;;;;5034901;28;20239;-74
2021/10/12 07:05:05;;;;;;;12.30;4.80;;;;;;;;;;5022540;28;20754;-75
2021/10/12 07:07:31;;;;;;;12.02;4.97;;;;;;;;;;5031316;28;20177;-74
2021/10/12 07:09:58;;;;;;;11.98;5.40;;;;;;;;;;5027873;28;20229;-75
2021/10/12 07:12:24;;;;;;;10.23;4.72;;;;;;;;;;5032276;28;20189;-73
2021/10/12 07:14:49;;;;;;;12.20;5.35;;;;;;;;;;5032541;28;20685;-74
2021/10/12 07:17:14;;;;;;;11.55;5.20;;;;;;;;;;5027778;28;20254;-73
2021/10/12 07:19:39;;;;;;;13.48;5.00;;;;;;;;;;5034211;28;20280;-75
2021/10/12 07:22:05;;;;;;;15.38;4.97;;;;;;;;;;5029506;28;20196;-74
2021/10/12 07:24:30;;;;;;;11.85;4.78;;;;;;;;;;5034765;28;20238;-75
2021/10/12 07:26:55;;;;;;;12.88;5.18;;;;;;;;;;5027024;28;20196;-76
2021/10/12 07:29:21;;;;;;;8.70;4.63;;;;;;;;;;5034383;28;20201;-75
2021/10/12 07:31:47;;;;;;;13.73;4.80;;;;;;;;;;5030755;28;20192;-78
2021/10/12 07:34:12;;;;;;;8.45;4.57;;;;;;;;;;5034500;28;20197;-76
2021/10/12 07:36:38;;;;;;;16.17;5.25;;;;;;;;;;5029731;28;20609;-78
2021/10/12 07:39:05;;;;;;;17.90;5.20;;;;;;;;;;5034314;28;20188;-74
2021/10/12 07:41:30;;;;;;;16.55;4.95;;;;;;;;;;5027740;28;20198;-75
2021/10/12 07:43:56;;;;;;;10.32;4.45;;;;;;;;;;5034442;28;20185;-75
2021/10/12 07:46:21;;;;;;;16.48;4.82;;;;;;;;;;5035295;28;20525;-74
2021/10/12 07:48:47;;;;;;;9.95;4.13;;;;;;;;;;5026289;28;20321;-74
2021/10/12 07:51:12;;;;;;;11.60;4.30;;;;;;;;;;5036635;28;20202;-73
2021/10/12 07:53:38;;;;;;;11.88;4.15;;;;;;;;;;5027463;28;20662;-73
2021/10/12 07:56:09;;;;;;;12.13;4.10;;;;;;;;;;5036475;28;20562;-74
2021/10/12 07:58:35;;;;;;;7.60;3.80;;;;;;;;;;5028796;28;20197;-73
2021/10/12 08:01:02;;;;;;;9.18;4.05;;;;;;;;;;5033114;28;20641;-73
2021/10/12 08:03:27;;;;;;;8.20;3.85;;;;;;;;;;5027303;28;20772;-73
2021/10/12 08:05:53;;;;;;;9.57;3.60;;;;;;;;;;5033692;28;20189;-74
2021/10/12 08:08:18;;;;;;;7.38;3.72;;;;;;;;;;5023846;28;20201;-74
2021/10/12 08:10:43;;;;;;;7.55;3.42;;;;;;;;;;5032393;28;20232;-73
2021/10/12 08:13:17;;;;;;;11.52;4.00;;;;;;;;;;5031290;28;20538;-72
2021/10/12 08:15:47;;;;;;;6.50;3.35;;;;;;;;;;5033326;28;20681;-73
2021/10/12 08:18:13;;;;;;;8.73;3.28;;;;;;;;;;5034003;28;20587;-74
2021/10/12 08:20:38;;;;;;;9.07;2.92;;;;;;;;;;5025445;28;20185;-74
2021/10/12 08:23:03;;;;;;;7.57;3.35;;;;;;;;;;5034618;28;20181;-75
2021/10/12 08:25:29;;;;;;;9.02;2.80;;;;;;;;;;5024954;28;20701;-73
2021/10/12 08:27:54;;;;;;;8.50;2.88;;;;;;;;;;5033115;28;20216;-73
2021/10/12 08:30:19;;;;;;;6.18;2.80;;;;;;;;;;5026485;28;20209;-74
2021/10/12 08:32:45;;;;;;;7.85;3.42;;;;;;;;;;5033560;28;20192;-75
2021/10/12 08:35:11;;;;;;;5.38;2.28;;;;;;;;;;5024727;28;20211;-74
2021/10/12 08:37:40;;;;;;;6.93;2.67;;;;;;;;;;5036824;28;20201;-74
2021/10/12 08:40:12;;;;;;;5.30;2.40;;;;;;;;;;5027457;28;20193;-74
2021/10/12 08:42:45;;;;;;;7.40;2.90;;;;;;;;;;5035001;28;20196;-75
2021/10/12 08:45:10;;;;;;;7.07;2.38;;;;;;;;;;5025889;28;20559;-74
2021/10/12 08:47:36;;;;;;;5.57;2.47;;;;;;;;;;5033054;28;20200;-74
2021/10/12 08:50:05;;;;;;;8.23;2.40;;;;;;;;;;5038139;28;20189;-76
2021/10/12 08:52:31;;;;;;;11.43;2.20;;;;;;;;;;5022596;28;20235;-76
2021/10/12 08:54:57;;;;;;;6.90;2.00;;;;;;;;;;5036274;28;20185;-76
2021/10/12 08:57:33;;;;;;;6.85;2.13;;;;;;;;;;5026884;28;20335;-77
2021/10/12 09:00:10;;;;;;;7.75;2.72;;;;;;;;;;5036548;28;20189;-76
2021/10/12 09:02:53;;;;;;;6.65;2.17;;;;;;;;;;5025790;28;20609;-75
2021/10/12 09:05:24;;;;;;;7.03;2.13;;;;;;;;;;5033101;28;20389;-75
2021/10/12 09:07:50;;;;;;;5.75;2.20;;;;;;;;;;5022799;28;20747;-76
2021/10/12 09:10:21;;;;;;;8.02;1.92;;;;;;;;;;5034235;28;20236;-74
2021/10/12 09:12:48;;;;;;;4.72;1.83;;;;;;;;;;5027489;28;20185;-75
2021/10/12 09:15:13;;;;;;;6.22;1.92;;;;;;;;;;5034838;28;20640;-74
2021/10/12 09:17:41;;;;;;;7.32;2.15;;;;;;;;;;5026589;28;20225;-74
2021/10/12 09:20:12;;;;;;;6.32;2.38;;;;;;;;;;5031912;28;20190;-73
2021/10/12 09:22:39;;;;;;;3.88;1.90;;;;;;;;;;5023980;28;20643;-73
2021/10/12 09:25:08;;;;;;;6.65;1.60;;;;;;;;;;5032213;28;21911;-74
2021/10/12 09:27:54;;;;;;;6.22;2.00;;;;;;;;;;5021337;28;20247;-74
2021/10/12 09:30:28;;;;;;;4.93;1.33;;;;;;;;;;5034557;28;20186;-75
2021/10/12 09:33:04;;;;;;;6.30;1.30;;;;;;;;;;5027750;28;20197;-75
2021/10/12 09:35:34;;;;;;;4.40;1.15;;;;;;;;;;5034238;28;20586;-78
2021/10/12 09:38:01;;;;;;;5.07;0.50;;;;;;;;;;5029647;28;20272;-75
2021/10/12 09:40:26;;;;;;;6.13;0.82;;;;;;;;;;5032116;28;20220;-77
2021/10/12 09:42:52;;;;;;;5.75;0.73;;;;;;;;;;5038716;28;20639;-79
2021/10/12 09:45:17;;;;;;;4.75;0.85;;;;;;;;;;5023988;28;20291;-76
2021/10/12 09:47:43;;;;;;;3.67;0.82;;;;;;;;;;5036153;28;20220;-77
2021/10/12 09:50:11;;;;;;;8.18;0.82;;;;;;;;;;5028157;28;20185;-78
2021/10/12 09:52:41;;;;;;;6.35;1.00;;;;;;;;;;5037460;28;20307;-77
2021/10/12 09:55:07;;;;;;;4.72;1.30;;;;;;;;;;5025205;28;20193;-76
2021/10/12 09:57:34;;;;;;;4.03;0.93;;;;;;;;;;5034132;28;20244;-76
2021/10/12 09:59:59;;;;;;;5.30;1.38;;;;;;;;;;5024726;28;20213;-75
2021/10/12 10:02:25;;;;;;;9.25;1.30;;;;;;;;;;5033401;28;20225;-75
2021/10/12 10:04:53;;;;;;;5.95;0.93;;;;;;;;;;5025179;28;20185;-74
2021/10/12 10:07:29;;;;;;;6.97;1.10;;;;;;;;;;5030571;28;20239;-74
2021/10/12 10:09:56;;;;;;;10.07;1.55;;;;;;;;;;5025253;28;20244;-74
2021/10/12 10:12:22;;;;;;;9.82;1.20;;;;;;;;;;5030337;28;20649;-74
2021/10/12 10:14:47;;;;;;;5.47;1.20;;;;;;;;;;5027818;28;20181;-74
2021/10/12 10:17:13;;;;;;;6.60;1.00;;;;;;;;;;5031122;28;20712;-73
2021/10/12 10:19:44;;;;;;;6.43;1.23;;;;;;;;;;5034060;28;20186;-72
2021/10/12 10:22:29;;;;;;;6.57;1.02;;;;;;;;;;5024047;28;20268;-72
2021/10/12 10:24:56;;;;;;;7.30;0.80;;;;;;;;;;5032796;28;20214;-72
2021/10/12 10:27:33;;;;;;;5.82;0.80;;;;;;;;;;5023039;28;20178;-72
2021/10/12 10:30:21;;;;;;;12.38;1.05;;;;;;;;;;5036505;28;20275;-72
2021/10/12 10:33:02;;;;;;;8.00;1.55;;;;;;;;;;5025350;28;20295;-72
2021/10/12 10:35:38;;;;;;;4.43;1.00;;;;;;;;;;5033430;28;20216;-72
2021/10/12 10:38:26;;;;;;;4.65;0.85;;;;;;;;;;5023658;28;20570;-72
2021/10/12 10:41:13;;;;;;;4.90;0.60;;;;;;;;;;5032908;28;20189;-72
2021/10/12 10:43:48;;;;;;;6.82;0.95;;;;;;;;;;5030991;28;20374;-72
2021/10/12 10:46:32;;;;;;;5.55;1.02;;;;;;;;;;5033470;28;20207;-72
2021/10/12 10:49:09;;;;;;;5.82;0.88;;;;;;;;;;5034653;28;20227;-72
2021/10/12 10:52:01;;;;;;;6.82;1.13;;;;;;;;;;5036532;28;20263;-72
2021/10/12 10:54:59;;;;;;;7.28;0.70;;;;;;;;;;5035149;28;20712;-72
2021/10/12 10:57:25;;;;;;;5.82;0.70;;;;;;;;;;5028188;28;20546;-72
2021/10/12 11:00:15;;;;;;;10.55;0.88;;;;;;;;;;5036622;28;20340;-72
2021/10/12 11:02:46;;;;;;;5.10;1.05;;;;;;;;;;5029487;28;20292;-76
2021/10/12 11:05:33;;;;;;;8.95;1.10;;;;;;;;;;5033088;28;20548;-71
2021/10/12 11:08:14;;;;;;;5.53;0.75;;;;;;;;;;5028971;28;20213;-72
2021/10/12 11:10:46;;;;;;;6.13;1.02;;;;;;;;;;5033756;28;20240;-72
2021/10/12 11:13:24;;;;;;;4.32;0.75;;;;;;;;;;5024383;28;20268;-72
2021/10/12 11:15:51;;;;;;;6.18;1.05;;;;;;;;;;5033036;28;20292;-73
2021/10/12 11:18:17;;;;;;;6.30;0.80;;;;;;;;;;5027658;28;20613;-71
2021/10/12 11:20:47;;;;;;;6.35;0.85;;;;;;;;;;5035422;28;20177;-72
2021/10/12 11:23:20;;;;;;;7.13;1.13;;;;;;;;;;5034535;28;20189;-72
2021/10/12 11:25:57;;;;;;;6.85;1.17;;;;;;;;;;5027954;28;20185;-74
2021/10/12 11:28:24;;;;;;;8.73;1.00;;;;;;;;;;5032273;28;20208;-72
2021/10/12 11:30:50;;;;;;;6.40;1.08;;;;;;;;;;5026062;28;20189;-72
2021/10/12 11:33:27;;;;;;;7.20;1.33;;;;;;;;;;5033862;28;20631;-73
2021/10/12 11:35:52;;;;;;;6.38;1.00;;;;;;;;;;5027447;28;20580;-73
2021/10/12 11:38:27;;;;;;;4.82;1.08;;;;;;;;;;5033541;28;21117;-72
2021/10/12 11:40:52;;;;;;;10.02;1.17;;;;;;;;;;5026214;28;20518;-72
2021/10/12 11:43:29;;;;;;;5.85;1.00;;;;;;;;;;5035125;28;20683;-73
2021/10/12 11:46:00;;;;;;;7.03;1.00;;;;;;;;;;5026703;28;20815;-72
2021/10/12 11:48:25;;;;;;;8.63;0.82;;;;;;;;;;5036346;28;20552;-72
2021/10/12 11:50:51;;;;;;;6.97;1.40;;;;;;;;;;5025380;28;20198;-74
2021/10/12 11:53:27;;;;;;;6.78;0.88;;;;;;;;;;5034121;28;20181;-73
2021/10/12 11:56:06;;;;;;;7.78;0.90;;;;;;;;;;5027217;28;20245;-73
2021/10/12 11:58:31;;;;;;;7.80;0.70;;;;;;;;;;5032081;28;20180;-73
2021/10/12 12:00:56;;;;;;;6.90;0.95;;;;;;;;;;5026688;28;20655;-72
2021/10/12 12:03:22;;;;;;;8.23;1.00;;;;;;;;;;5034680;28;20185;-73
2021/10/12 12:05:55;;;;;;;3.55;0.80;;;;;;;;;;5026146;28;20189;-73
2021/10/12 12:08:22;;;;;;;4.53;0.60;;;;;;;;;;5035747;28;20209;-73
2021/10/12 12:10:51;;;;;;;3.78;0.75;;;;;;;;;;5030499;28;20314;-73
2021/10/12 12:13:17;;;;;;;3.70;0.93;;;;;;;;;;5026865;28;20280;-73
2021/10/12 12:15:43;;;;;;;9.23;0.95;;;;;;;;;;5031930;28;21291;-75
2021/10/12 12:18:27;;;;;;;6.95;0.75;;;;;;;;;;5025322;28;20202;-73
2021/10/12 12:21:00;;;;;;;4.35;0.80;;;;;;;;;;5033613;28;20231;-74
2021/10/12 12:23:29;;;;;;;8.98;0.90;;;;;;;;;;5025912;28;20228;-74
2021/10/12 12:25:56;;;;;;;9.02;0.98;;;;;;;;;;5034852;28;20213;-72
2021/10/12 12:28:21;;;;;;;5.50;0.88;;;;;;;;;;5026567;28;20602;-73
2021/10/12 12:30:47;;;;;;;3.70;0.70;;;;;;;;;;5036106;28;20189;-73
2021/10/12 12:33:12;;;;;;;4.63;0.80;;;;;;;;;;5027623;28;20186;-73
2021/10/12 12:35:40;;;;;;;7.68;0.88;;;;;;;;;;5036950;28;20236;-75
2021/10/12 12:38:06;;;;;;;3.65;0.80;;;;;;;;;;5024896;28;20297;-73
2021/10/12 12:40:34;;;;;;;6.65;0.80;;;;;;;;;;5032980;28;20639;-72
2021/10/12 12:43:22;;;;;;;3.92;0.60;;;;;;;;;;5026585;28;20649;-71
2021/10/12 12:46:08;;;;;;;3.90;0.60;;;;;;;;;;5037104;28;20627;-73
2021/10/12 12:48:33;;;;;;;2.47;0.60;;;;;;;;;;5026778;28;20296;-72
2021/10/12 12:51:00;;;;;;;6.30;1.40;;;;;;;;;;5033457;28;20181;-73
2021/10/12 12:53:47;;;;;;;5.03;1.05;;;;;;;;;;5026559;28;22512;-74
2021/10/12 12:56:15;;;;;;;7.95;1.10;;;;;;;;;;5032755;28;20270;-76
2021/10/12 12:58:42;;;;;;;7.10;0.75;;;;;;;;;;5026394;28;20254;-78
2021/10/12 13:01:12;;;;;;;7.43;0.73;;;;;;;;;;5031593;28;20251;-74
2021/10/12 13:03:37;;;;;;;5.97;0.70;;;;;;;;;;5034186;28;20854;-73
2021/10/12 13:06:03;;;;;;;10.18;0.90;;;;;;;;;;5026369;28;20327;-75
2021/10/12 13:08:29;;;;;;;3.45;0.50;;;;;;;;;;5033219;28;20282;-73
2021/10/12 13:10:55;;;;;;;5.90;0.80;;;;;;;;;;5023211;28;20334;-73
2021/10/12 13:13:20;;;;;;;3.10;0.50;;;;;;;;;;5032223;28;20243;-73
2021/10/12 13:15:46;;;;;;;3.88;0.73;;;;;;;;;;5019256;28;20185;-74
2021/10/12 13:18:11;;;;;;;4.43;1.00;;;;;;;;;;5030545;28;20186;-73
2021/10/12 13:20:38;;;;;;;3.65;0.85;;;;;;;;;;5025155;28;20208;-72
2021/10/12 13:23:03;;;;;;;3.25;0.70;;;;;;;;;;5026563;28;20200;-74
2021/10/12 13:25:28;;;;;;;6.50;0.70;;;;;;;;;;5019466;28;20704;-73
2021/10/12 13:27:54;;;;;;;6.10;0.80;;;;;;;;;;5029330;28;20189;-72
2021/10/12 13:30:19;;;;;;;3.97;0.75;;;;;;;;;;5020751;28;20193;-75
2021/10/12 13:32:44;;;;;;;4.55;0.70;;;;;;;;;;5029834;28;20539;-75
2021/10/12 13:35:13;;;;;;;4.20;0.55;;;;;;;;;;5028120;28;20189;-72
2021/10/12 13:37:39;;;;;;;4.07;0.45;;;;;;;;;;5024635;28;20681;-72
2021/10/12 13:40:05;;;;;;;7.57;0.68;;;;;;;;;;5029715;28;20657;-72
2021/10/12 13:42:30;;;;;;;3.72;0.60;;;;;;;;;;5020094;28;20545;-73
2021/10/12 13:44:57;;;;;;;3.17;0.60;;;;;;;;;;5030610;28;20509;-74
2021/10/12 13:47:23;;;;;;;3.65;0.65;;;;;;;;;;5022530;28;20669;-75
2021/10/12 13:49:48;;;;;;;7.93;1.10;;;;;;;;;;4333709;28;10000722;-77
2021/10/12 13:52:14;;;;;;;1.50;0.57;;;;;;;;;;5021013;28;20197;-73
2021/10/12 13:54:40;;;;;;;3.78;1.00;;;;;;;;;;5029527;28;20889;-73
2021/10/12 13:57:05;;;;;;;7.75;0.80;;;;;;;;;;5020773;28;20312;-73
2021/10/12 13:59:30;;;;;;;4.35;0.95;;;;;;;;;;5029504;28;20203;-75
2021/10/12 14:01:56;;;;;;;5.13;0.75;;;;;;;;;;5014664;28;20247;-72
2021/10/12 14:04:21;;;;;;;5.53;1.08;;;;;;;;;;5030644;28;20192;-74
2021/10/12 14:06:47;;;;;;;5.70;0.90;;;;;;;;;;5032569;28;20203;-73
2021/10/12 14:09:13;;;;;;;8.23;1.23;;;;;;;;;;5020941;28;20319;-73
2021/10/12 14:11:38;;;;;;;7.55;0.80;;;;;;;;;;5029989;28;20200;-74
2021/10/12 14:14:07;;;;;;;4.45;0.82;;;;;;;;;;5019436;28;20203;-74
2021/10/12 14:16:33;;;;;;;3.45;0.68;;;;;;;;;;5031467;28;20300;-73
2021/10/12 14:18:58;;;;;;;5.00;0.68;;;;;;;;;;5027642;28;20262;-76
2021/10/12 14:21:24;;;;;;;3.45;0.90;;;;;;;;;;5035691;28;20247;-78
2021/10/12 14:23:50;;;;;;;5.38;1.23;;;;;;;;;;5023819;28;20205;-74
2021/10/12 14:26:17;;;;;;;4.93;0.82;;;;;;;;;;5042322;28;20258;-74
2021/10/12 14:28:42;;;;;;;4.53;1.05;;;;;;;;;;5032788;28;20181;-73
2021/10/12 14:31:07;;;;;;;4.82;0.77;;;;;;;;;;5041077;28;20196;-74
2021/10/12 14:33:33;;;;;;;5.95;1.02;;;;;;;;;;5027548;28;20182;-76
2021/10/12 14:35:58;;;;;;;5.13;0.98;;;;;;;;;;5038145;28;20186;-74
2021/10/12 14:38:24;;;;;;;6.15;1.00;;;;;;;;;;4687644;28;10000433;-74
2021/10/12 14:40:50;;;;;;;4.70;0.80;;;;;;;;;;5030034;28;20561;-73